sensor_id;sensor_type;location;lat;lon;timestamp;pressure;altitude;pressure_sealevel;temperature;humidity
79347;BME280;68815;48.810;44.482;2023-04-24T00:00:08;100947;;;8.1;73.4
79347;BME280;68815;48.810;44.482;2023-04-24T00:03:10;100946;;;8.2;73.8
79347;BME280;68815;48.810;44.482;2023-04-24T00:06:12;100942;;;8.1;74
79347;BME280;68815;48.810;44.482;2023-04-24T00:09:14;100938;;;8.1;74
79347;BME280;68815;48.810;44.482;2023-04-24T00:12:15;100939;;;8.3;73.7
79347;BME280;68815;48.810;44.482;2023-04-24T00:15:17;100937;;;8.3;73
79347;BME280;68815;48.810;44.482;2023-04-24T00:18:18;100932;;;8.2;73.6
79347;BME280;68815;48.810;44.482;2023-04-24T00:21:20;100936;;;8.2;73.3
79347;BME280;68815;48.810;44.482;2023-04-24T00:24:22;100941;;;8.2;73.6
79347;BME280;68815;48.810;44.482;2023-04-24T00:27:23;100945;;;8.2;73.8
79347;BME280;68815;48.810;44.482;2023-04-24T00:30:30;100945;;;8.3;72.6
79347;BME280;68815;48.810;44.482;2023-04-24T00:33:32;100948;;;8.2;73.4
79347;BME280;68815;48.810;44.482;2023-04-24T00:36:34;100945;;;8.2;73.5
79347;BME280;68815;48.810;44.482;2023-04-24T00:39:35;100945;;;8.2;72.6
79347;BME280;68815;48.810;44.482;2023-04-24T00:42:38;100952;;;8.1;73.5
79347;BME280;68815;48.810;44.482;2023-04-24T00:45:40;100953;;;8;74.2
79347;BME280;68815;48.810;44.482;2023-04-24T00:48:42;100950;;;8;73.7
79347;BME280;68815;48.810;44.482;2023-04-24T00:51:44;100950;;;8;73.2
79347;BME280;68815;48.810;44.482;2023-04-24T00:54:46;100950;;;8.1;73.1
79347;BME280;68815;48.810;44.482;2023-04-24T00:57:48;100946;;;8.1;73.5
79347;BME280;68815;48.810;44.482;2023-04-24T01:00:51;100952;;;8.2;72.6
79347;BME280;68815;48.810;44.482;2023-04-24T01:03:53;100946;;;8.2;73
79347;BME280;68815;48.810;44.482;2023-04-24T01:06:55;100946;;;8.2;72.7
79347;BME280;68815;48.810;44.482;2023-04-24T01:09:56;100934;;;8.2;73.1
79347;BME280;68815;48.810;44.482;2023-04-24T01:12:58;100930;;;8.2;73.4
79347;BME280;68815;48.810;44.482;2023-04-24T01:16:00;100931;;;8.2;73.7
79347;BME280;68815;48.810;44.482;2023-04-24T01:19:02;100933;;;8.1;74.2
79347;BME280;68815;48.810;44.482;2023-04-24T01:22:08;100932;;;8;74.3
79347;BME280;68815;48.810;44.482;2023-04-24T01:25:10;100933;;;7.9;74.6
79347;BME280;68815;48.810;44.482;2023-04-24T01:28:11;100940;;;7.9;74.7
79347;BME280;68815;48.810;44.482;2023-04-24T01:31:13;100929;;;7.8;74.5
79347;BME280;68815;48.810;44.482;2023-04-24T01:34:15;100929;;;7.8;75
79347;BME280;68815;48.810;44.482;2023-04-24T01:37:17;100934;;;7.9;74.4
79347;BME280;68815;48.810;44.482;2023-04-24T01:40:18;100945;;;7.7;74.9
79347;BME280;68815;48.810;44.482;2023-04-24T01:43:21;100952;;;7.6;75.1
79347;BME280;68815;48.810;44.482;2023-04-24T01:46:24;100958;;;7.5;74.9
79347;BME280;68815;48.810;44.482;2023-04-24T01:49:26;100960;;;7.5;74.5
79347;BME280;68815;48.810;44.482;2023-04-24T01:52:28;100965;;;7.6;73.9
79347;BME280;68815;48.810;44.482;2023-04-24T01:55:29;100964;;;7.7;73.8
79347;BME280;68815;48.810;44.482;2023-04-24T01:58:31;100964;;;7.7;73.9
79347;BME280;68815;48.810;44.482;2023-04-24T02:01:33;100967;;;7.7;74.4
79347;BME280;68815;48.810;44.482;2023-04-24T02:04:35;100967;;;7.8;74.1
79347;BME280;68815;48.810;44.482;2023-04-24T02:07:36;100966;;;7.9;74.1
79347;BME280;68815;48.810;44.482;2023-04-24T02:10:38;100965;;;7.9;74.1
79347;BME280;68815;48.810;44.482;2023-04-24T02:13:40;100964;;;8;74
79347;BME280;68815;48.810;44.482;2023-04-24T02:16:42;100970;;;8.1;73.9
79347;BME280;68815;48.810;44.482;2023-04-24T02:19:43;100970;;;8.2;74
79347;BME280;68815;48.810;44.482;2023-04-24T02:22:45;100968;;;8.3;74.4
79347;BME280;68815;48.810;44.482;2023-04-24T02:25:47;100962;;;8.2;73.9
79347;BME280;68815;48.810;44.482;2023-04-24T02:28:48;100967;;;8.2;74.1
79347;BME280;68815;48.810;44.482;2023-04-24T02:31:50;100970;;;8.3;73.5
79347;BME280;68815;48.810;44.482;2023-04-24T02:34:51;100973;;;8.3;73.8
79347;BME280;68815;48.810;44.482;2023-04-24T02:37:53;100970;;;8.3;73.4
79347;BME280;68815;48.810;44.482;2023-04-24T02:40:54;100968;;;8.4;73.1
79347;BME280;68815;48.810;44.482;2023-04-24T02:43:56;100975;;;8.4;72.9
79347;BME280;68815;48.810;44.482;2023-04-24T02:46:58;100974;;;8.4;73
79347;BME280;68815;48.810;44.482;2023-04-24T02:50:00;100977;;;8.5;72.8
79347;BME280;68815;48.810;44.482;2023-04-24T02:53:01;100977;;;8.5;72.7
79347;BME280;68815;48.810;44.482;2023-04-24T02:56:03;100983;;;8.5;73
79347;BME280;68815;48.810;44.482;2023-04-24T02:59:04;100990;;;7.8;75
79347;BME280;68815;48.810;44.482;2023-04-24T03:02:06;100985;;;8;74.4
79347;BME280;68815;48.810;44.482;2023-04-24T03:05:07;100998;;;7.9;74.5
79347;BME280;68815;48.810;44.482;2023-04-24T03:08:09;100989;;;8;74.2
79347;BME280;68815;48.810;44.482;2023-04-24T03:11:10;100997;;;8.2;73.1
79347;BME280;68815;48.810;44.482;2023-04-24T03:14:12;101010;;;7.7;74.9
79347;BME280;68815;48.810;44.482;2023-04-24T03:17:13;101005;;;7.5;76
79347;BME280;68815;48.810;44.482;2023-04-24T03:20:15;101015;;;7.6;76.1
79347;BME280;68815;48.810;44.482;2023-04-24T03:23:16;101008;;;7.9;75.3
79347;BME280;68815;48.810;44.482;2023-04-24T03:26:18;101018;;;8.2;74.2
79347;BME280;68815;48.810;44.482;2023-04-24T03:29:20;101019;;;8.5;73.1
79347;BME280;68815;48.810;44.482;2023-04-24T03:32:22;101014;;;8.5;73.7
79347;BME280;68815;48.810;44.482;2023-04-24T03:35:23;101016;;;8.6;73.7
79347;BME280;68815;48.810;44.482;2023-04-24T03:38:25;101005;;;8.6;73.4
79347;BME280;68815;48.810;44.482;2023-04-24T03:41:26;101009;;;9.2;72.2
79347;BME280;68815;48.810;44.482;2023-04-24T03:44:28;101009;;;9.7;72.5
79347;BME280;68815;48.810;44.482;2023-04-24T03:47:30;101007;;;9.5;72.2
79347;BME280;68815;48.810;44.482;2023-04-24T03:50:31;101013;;;9.6;73.3
79347;BME280;68815;48.810;44.482;2023-04-24T03:53:33;101021;;;9.6;73.7
79347;BME280;68815;48.810;44.482;2023-04-24T03:56:34;101029;;;9.7;73.7
79347;BME280;68815;48.810;44.482;2023-04-24T03:59:36;101020;;;10;72.7
79347;BME280;68815;48.810;44.482;2023-04-24T04:02:37;101033;;;10.2;73
79347;BME280;68815;48.810;44.482;2023-04-24T04:05:39;101033;;;10.4;72
79347;BME280;68815;48.810;44.482;2023-04-24T04:08:40;101033;;;10;72.3
79347;BME280;68815;48.810;44.482;2023-04-24T04:11:42;101033;;;9.8;73.5
79347;BME280;68815;48.810;44.482;2023-04-24T04:14:43;101032;;;9.8;73
79347;BME280;68815;48.810;44.482;2023-04-24T04:17:45;101035;;;9.6;73.7
79347;BME280;68815;48.810;44.482;2023-04-24T04:20:46;101041;;;9.7;73.5
79347;BME280;68815;48.810;44.482;2023-04-24T04:23:48;101043;;;9.8;73.6
79347;BME280;68815;48.810;44.482;2023-04-24T04:26:49;101046;;;9.7;73.9
79347;BME280;68815;48.810;44.482;2023-04-24T04:29:51;101055;;;9.9;73.4
79347;BME280;68815;48.810;44.482;2023-04-24T04:32:53;101058;;;10;73
79347;BME280;68815;48.810;44.482;2023-04-24T04:35:54;101066;;;9.7;72.2
79347;BME280;68815;48.810;44.482;2023-04-24T04:38:55;101061;;;9.2;73.8
79347;BME280;68815;48.810;44.482;2023-04-24T04:41:57;101072;;;9.2;74.4
79347;BME280;68815;48.810;44.482;2023-04-24T04:44:58;101071;;;9.4;74.5
79347;BME280;68815;48.810;44.482;2023-04-24T04:47:59;101081;;;9.6;73.8
79347;BME280;68815;48.810;44.482;2023-04-24T04:51:02;101073;;;9.7;73.8
79347;BME280;68815;48.810;44.482;2023-04-24T04:54:03;101078;;;9.8;74.2
79347;BME280;68815;48.810;44.482;2023-04-24T04:57:05;101077;;;9.9;73.3
79347;BME280;68815;48.810;44.482;2023-04-24T05:00:07;101077;;;10.2;73.5
79347;BME280;68815;48.810;44.482;2023-04-24T05:03:09;101082;;;10.2;73.5
79347;BME280;68815;48.810;44.482;2023-04-24T05:06:10;101079;;;10.3;73.6
79347;BME280;68815;48.810;44.482;2023-04-24T05:09:12;101076;;;10.3;73.3
79347;BME280;68815;48.810;44.482;2023-04-24T05:12:13;101077;;;10.5;73.7
79347;BME280;68815;48.810;44.482;2023-04-24T05:15:15;101078;;;10.7;73.8
79347;BME280;68815;48.810;44.482;2023-04-24T05:18:16;101076;;;10.9;73.2
79347;BME280;68815;48.810;44.482;2023-04-24T05:21:18;101080;;;10.9;72.7
79347;BME280;68815;48.810;44.482;2023-04-24T05:24:19;101082;;;11.3;72.2
79347;BME280;68815;48.810;44.482;2023-04-24T05:27:20;101078;;;11.3;72.3
79347;BME280;68815;48.810;44.482;2023-04-24T05:30:23;101081;;;11.3;71.6
79347;BME280;68815;48.810;44.482;2023-04-24T05:33:24;101078;;;11.3;70.6
79347;BME280;68815;48.810;44.482;2023-04-24T05:36:26;101081;;;11.3;70.4
79347;BME280;68815;48.810;44.482;2023-04-24T05:39:27;101085;;;11.5;69.3
79347;BME280;68815;48.810;44.482;2023-04-24T05:42:28;101077;;;11.5;68.7
79347;BME280;68815;48.810;44.482;2023-04-24T05:45:30;101076;;;11.6;69.3
79347;BME280;68815;48.810;44.482;2023-04-24T05:48:31;101084;;;11.8;69.6
79347;BME280;68815;48.810;44.482;2023-04-24T05:51:33;101084;;;11.8;70.1
79347;BME280;68815;48.810;44.482;2023-04-24T05:54:35;101083;;;11.9;70.6
79347;BME280;68815;48.810;44.482;2023-04-24T05:57:36;101082;;;12.1;70
79347;BME280;68815;48.810;44.482;2023-04-24T06:00:38;101088;;;12.2;70.1
79347;BME280;68815;48.810;44.482;2023-04-24T06:03:40;101090;;;12.4;69.3
79347;BME280;68815;48.810;44.482;2023-04-24T06:06:42;101080;;;12.8;67.9
79347;BME280;68815;48.810;44.482;2023-04-24T06:09:43;101078;;;13;67.1
79347;BME280;68815;48.810;44.482;2023-04-24T06:12:44;101075;;;13.2;66.4
79347;BME280;68815;48.810;44.482;2023-04-24T06:15:46;101074;;;13.5;63.2
79347;BME280;68815;48.810;44.482;2023-04-24T06:18:47;101071;;;13.9;62.7
79347;BME280;68815;48.810;44.482;2023-04-24T06:21:49;101066;;;14.2;59.8
79347;BME280;68815;48.810;44.482;2023-04-24T06:24:50;101067;;;14.3;58.4
79347;BME280;68815;48.810;44.482;2023-04-24T06:27:52;101064;;;14.4;59.7
79347;BME280;68815;48.810;44.482;2023-04-24T06:30:54;101062;;;14.7;57.9
79347;BME280;68815;48.810;44.482;2023-04-24T06:33:55;101071;;;15.1;57.7
79347;BME280;68815;48.810;44.482;2023-04-24T06:36:57;101068;;;15;55.3
79347;BME280;68815;48.810;44.482;2023-04-24T06:39:58;101072;;;15;57
79347;BME280;68815;48.810;44.482;2023-04-24T06:42:59;101075;;;15.5;55
79347;BME280;68815;48.810;44.482;2023-04-24T06:46:01;101082;;;15.6;54.7
79347;BME280;68815;48.810;44.482;2023-04-24T06:49:02;101089;;;15.5;54
79347;BME280;68815;48.810;44.482;2023-04-24T06:52:04;101090;;;15.7;52.3
79347;BME280;68815;48.810;44.482;2023-04-24T06:55:06;101084;;;15.4;53.8
79347;BME280;68815;48.810;44.482;2023-04-24T06:58:08;101088;;;15.1;54.8
79347;BME280;68815;48.810;44.482;2023-04-24T07:01:10;101081;;;15.2;55.1
79347;BME280;68815;48.810;44.482;2023-04-24T07:04:11;101091;;;15.1;55.2
79347;BME280;68815;48.810;44.482;2023-04-24T07:07:13;101101;;;15;55.6
79347;BME280;68815;48.810;44.482;2023-04-24T07:10:14;101092;;;14.9;56.2
79347;BME280;68815;48.810;44.482;2023-04-24T07:13:16;101101;;;14.9;56.3
79347;BME280;68815;48.810;44.482;2023-04-24T07:16:17;101095;;;14.8;56.5
79347;BME280;68815;48.810;44.482;2023-04-24T07:22:51;101083;;;14.9;56.7
79347;BME280;68815;48.810;44.482;2023-04-24T07:25:52;101081;;;14.9;56.9
79347;BME280;68815;48.810;44.482;2023-04-24T07:28:54;101085;;;14.9;56.5
79347;BME280;68815;48.810;44.482;2023-04-24T07:31:55;101084;;;14.9;56
79347;BME280;68815;48.810;44.482;2023-04-24T07:34:57;101088;;;15;55.5
79347;BME280;68815;48.810;44.482;2023-04-24T07:37:58;101088;;;15.1;54.8
79347;BME280;68815;48.810;44.482;2023-04-24T07:40:59;101085;;;15;54.3
79347;BME280;68815;48.810;44.482;2023-04-24T07:44:01;101081;;;15.2;52.8
79347;BME280;68815;48.810;44.482;2023-04-24T07:47:03;101071;;;15.5;53.5
79347;BME280;68815;48.810;44.482;2023-04-24T07:50:05;101073;;;15.8;51.1
79347;BME280;68815;48.810;44.482;2023-04-24T07:53:07;101077;;;16.1;49.4
79347;BME280;68815;48.810;44.482;2023-04-24T07:56:09;101067;;;16.6;48.2
79347;BME280;68815;48.810;44.482;2023-04-24T07:59:11;101058;;;17;47.2
79347;BME280;68815;48.810;44.482;2023-04-24T08:02:12;101063;;;16.9;46.7
79347;BME280;68815;48.810;44.482;2023-04-24T08:05:14;101049;;;16.9;46.8
79347;BME280;68815;48.810;44.482;2023-04-24T08:08:15;101046;;;17.1;47.3
79347;BME280;68815;48.810;44.482;2023-04-24T08:11:17;101042;;;16.9;46.7
79347;BME280;68815;48.810;44.482;2023-04-24T08:14:18;101063;;;17;44.9
79347;BME280;68815;48.810;44.482;2023-04-24T08:17:20;101042;;;16.8;44.7
79347;BME280;68815;48.810;44.482;2023-04-24T08:20:22;101049;;;16.6;45.3
79347;BME280;68815;48.810;44.482;2023-04-24T08:23:24;101038;;;16.6;46.7
79347;BME280;68815;48.810;44.482;2023-04-24T08:26:25;101041;;;16.5;46.6
79347;BME280;68815;48.810;44.482;2023-04-24T08:29:27;101032;;;16.7;46.9
79347;BME280;68815;48.810;44.482;2023-04-24T08:32:29;101045;;;16.5;46
79347;BME280;68815;48.810;44.482;2023-04-24T08:35:30;101029;;;16.7;46
79347;BME280;68815;48.810;44.482;2023-04-24T08:38:33;101022;;;16.8;44.7
79347;BME280;68815;48.810;44.482;2023-04-24T08:41:35;101020;;;16.7;44.1
79347;BME280;68815;48.810;44.482;2023-04-24T08:44:37;101020;;;17.2;44.2
79347;BME280;68815;48.810;44.482;2023-04-24T08:47:39;101013;;;17.1;43.5
79347;BME280;68815;48.810;44.482;2023-04-24T08:50:41;101013;;;16.8;43.9
79347;BME280;68815;48.810;44.482;2023-04-24T08:53:45;101020;;;16.7;45.1
79347;BME280;68815;48.810;44.482;2023-04-24T08:56:47;101004;;;16.9;45.8
79347;BME280;68815;48.810;44.482;2023-04-24T08:59:49;101005;;;17.2;44.5
79347;BME280;68815;48.810;44.482;2023-04-24T09:02:52;100993;;;17;45
79347;BME280;68815;48.810;44.482;2023-04-24T09:05:55;100993;;;17.3;44.2
79347;BME280;68815;48.810;44.482;2023-04-24T09:08:59;101011;;;16.9;42.9
79347;BME280;68815;48.810;44.482;2023-04-24T09:12:02;100980;;;17;43.1
79347;BME280;68815;48.810;44.482;2023-04-24T09:15:04;100986;;;17.2;43.1
79347;BME280;68815;48.810;44.482;2023-04-24T09:18:06;100997;;;17.1;43
79347;BME280;68815;48.810;44.482;2023-04-24T09:21:09;100987;;;16.9;43.6
79347;BME280;68815;48.810;44.482;2023-04-24T09:24:15;100991;;;16.8;43.3
79347;BME280;68815;48.810;44.482;2023-04-24T09:27:17;100994;;;16.8;44.3
79347;BME280;68815;48.810;44.482;2023-04-24T09:30:21;100979;;;16.8;44.5
79347;BME280;68815;48.810;44.482;2023-04-24T09:33:22;100978;;;16.7;44.7
79347;BME280;68815;48.810;44.482;2023-04-24T09:36:28;100969;;;16.5;44.4
79347;BME280;68815;48.810;44.482;2023-04-24T09:39:31;100965;;;16.5;44.4
79347;BME280;68815;48.810;44.482;2023-04-24T09:42:32;100975;;;16.6;43.4
79347;BME280;68815;48.810;44.482;2023-04-24T09:45:36;100961;;;16.6;42.9
79347;BME280;68815;48.810;44.482;2023-04-24T09:48:37;100963;;;16.6;42.9
79347;BME280;68815;48.810;44.482;2023-04-24T09:51:39;100977;;;16.7;42.1
79347;BME280;68815;48.810;44.482;2023-04-24T09:54:41;100967;;;16.7;41.4
79347;BME280;68815;48.810;44.482;2023-04-24T09:57:50;100949;;;16.8;41.2
79347;BME280;68815;48.810;44.482;2023-04-24T10:00:54;100957;;;16.8;39.9
79347;BME280;68815;48.810;44.482;2023-04-24T10:03:55;100963;;;16.6;40.1
79347;BME280;68815;48.810;44.482;2023-04-24T10:06:57;100949;;;16.6;40.8
79347;BME280;68815;48.810;44.482;2023-04-24T10:09:59;100946;;;16.6;41.9
79347;BME280;68815;48.810;44.482;2023-04-24T10:13:01;100947;;;16.6;42
79347;BME280;68815;48.810;44.482;2023-04-24T10:16:03;100947;;;16.6;42.8
79347;BME280;68815;48.810;44.482;2023-04-24T10:19:05;100954;;;16.4;42.8
79347;BME280;68815;48.810;44.482;2023-04-24T10:22:07;100936;;;16.4;43.3
79347;BME280;68815;48.810;44.482;2023-04-24T10:25:09;100940;;;16.3;43.2
79347;BME280;68815;48.810;44.482;2023-04-24T10:28:11;100954;;;16.2;43.8
79347;BME280;68815;48.810;44.482;2023-04-24T10:31:14;100934;;;16.1;45.1
79347;BME280;68815;48.810;44.482;2023-04-24T10:34:17;100932;;;16.2;45.8
79347;BME280;68815;48.810;44.482;2023-04-24T10:37:20;100936;;;16.2;45.8
79347;BME280;68815;48.810;44.482;2023-04-24T10:40:26;100926;;;16.1;46.2
79347;BME280;68815;48.810;44.482;2023-04-24T10:43:28;100907;;;16.1;46.6
79347;BME280;68815;48.810;44.482;2023-04-24T10:46:29;100908;;;16;47
79347;BME280;68815;48.810;44.482;2023-04-24T10:49:32;100900;;;15.9;47.4
79347;BME280;68815;48.810;44.482;2023-04-24T10:52:43;100902;;;16;47.8
79347;BME280;68815;48.810;44.482;2023-04-24T10:55:47;100901;;;15.9;47.2
79347;BME280;68815;48.810;44.482;2023-04-24T10:58:50;100897;;;15.9;47.4
79347;BME280;68815;48.810;44.482;2023-04-24T11:01:53;100891;;;15.7;47.7
79347;BME280;68815;48.810;44.482;2023-04-24T11:04:55;100889;;;15.7;48
79347;BME280;68815;48.810;44.482;2023-04-24T11:08:12;100874;;;15.8;47.8
79347;BME280;68815;48.810;44.482;2023-04-24T11:11:16;100882;;;15.7;47.5
79347;BME280;68815;48.810;44.482;2023-04-24T11:14:19;100877;;;15.7;47.9
79347;BME280;68815;48.810;44.482;2023-04-24T11:17:30;100874;;;15.8;47.5
79347;BME280;68815;48.810;44.482;2023-04-24T11:20:33;100878;;;15.6;48
79347;BME280;68815;48.810;44.482;2023-04-24T11:23:36;100895;;;15.4;48.2
79347;BME280;68815;48.810;44.482;2023-04-24T11:26:38;100888;;;15.2;48.7
79347;BME280;68815;48.810;44.482;2023-04-24T11:29:41;100869;;;15.2;48.9
79347;BME280;68815;48.810;44.482;2023-04-24T11:32:42;100874;;;15.1;49.9
79347;BME280;68815;48.810;44.482;2023-04-24T11:35:44;100867;;;15.1;49.8
79347;BME280;68815;48.810;44.482;2023-04-24T11:38:46;100859;;;14.9;50.1
79347;BME280;68815;48.810;44.482;2023-04-24T11:41:48;100861;;;14.8;50.7
79347;BME280;68815;48.810;44.482;2023-04-24T11:44:51;100871;;;14.9;51.2
79347;BME280;68815;48.810;44.482;2023-04-24T11:47:53;100867;;;14.8;51.8
79347;BME280;68815;48.810;44.482;2023-04-24T11:50:55;100857;;;14.9;52.4
79347;BME280;68815;48.810;44.482;2023-04-24T11:53:56;100857;;;14.9;53.2
79347;BME280;68815;48.810;44.482;2023-04-24T11:56:58;100857;;;14.8;54
79347;BME280;68815;48.810;44.482;2023-04-24T11:59:59;100848;;;14.9;54.1
79347;BME280;68815;48.810;44.482;2023-04-24T12:03:06;100849;;;14.9;53
79347;BME280;68815;48.810;44.482;2023-04-24T12:06:09;100840;;;14.9;52.8
79347;BME280;68815;48.810;44.482;2023-04-24T12:09:11;100834;;;15.1;52.2
79347;BME280;68815;48.810;44.482;2023-04-24T12:12:13;100830;;;15.1;51.9
79347;BME280;68815;48.810;44.482;2023-04-24T12:15:15;100818;;;15.2;50.9
79347;BME280;68815;48.810;44.482;2023-04-24T12:18:17;100809;;;15.2;50.9
79347;BME280;68815;48.810;44.482;2023-04-24T12:21:20;100808;;;15.1;51.3
79347;BME280;68815;48.810;44.482;2023-04-24T12:24:22;100811;;;15.2;51
79347;BME280;68815;48.810;44.482;2023-04-24T12:27:24;100795;;;15.2;51.2
79347;BME280;68815;48.810;44.482;2023-04-24T12:30:27;100800;;;15.2;51.7
79347;BME280;68815;48.810;44.482;2023-04-24T12:33:32;100796;;;15.2;52.2
79347;BME280;68815;48.810;44.482;2023-04-24T12:36:35;100795;;;15.2;52
79347;BME280;68815;48.810;44.482;2023-04-24T12:39:36;100819;;;15.1;53
79347;BME280;68815;48.810;44.482;2023-04-24T12:42:43;100800;;;15.1;54.4
79347;BME280;68815;48.810;44.482;2023-04-24T12:45:48;100804;;;15.1;56.5
79347;BME280;68815;48.810;44.482;2023-04-24T12:48:50;100812;;;15;58.3
79347;BME280;68815;48.810;44.482;2023-04-24T12:51:51;100789;;;14.9;59.6
79347;BME280;68815;48.810;44.482;2023-04-24T12:54:54;100785;;;15;59.8
79347;BME280;68815;48.810;44.482;2023-04-24T12:57:55;100794;;;14.9;60.7
79347;BME280;68815;48.810;44.482;2023-04-24T13:00:57;100793;;;14.8;60.6
79347;BME280;68815;48.810;44.482;2023-04-24T13:03:58;100787;;;14.8;58.5
79347;BME280;68815;48.810;44.482;2023-04-24T13:07:00;100778;;;14.7;58.9
79347;BME280;68815;48.810;44.482;2023-04-24T13:10:02;100773;;;14.6;59.3
79347;BME280;68815;48.810;44.482;2023-04-24T13:13:06;100782;;;14.5;59.3
79347;BME280;68815;48.810;44.482;2023-04-24T13:16:08;100773;;;14.4;59.2
79347;BME280;68815;48.810;44.482;2023-04-24T13:19:09;100767;;;14.3;58.5
79347;BME280;68815;48.810;44.482;2023-04-24T13:22:12;100785;;;14.3;58.6
79347;BME280;68815;48.810;44.482;2023-04-24T13:25:13;100762;;;14.3;59.1
79347;BME280;68815;48.810;44.482;2023-04-24T13:28:15;100768;;;14.2;58.8
79347;BME280;68815;48.810;44.482;2023-04-24T13:31:16;100774;;;14.2;59.7
79347;BME280;68815;48.810;44.482;2023-04-24T13:34:18;100778;;;14;60.4
79347;BME280;68815;48.810;44.482;2023-04-24T13:37:19;100768;;;13.9;60.8
79347;BME280;68815;48.810;44.482;2023-04-24T13:40:21;100770;;;13.8;61.9
79347;BME280;68815;48.810;44.482;2023-04-24T13:43:22;100765;;;13.8;62.3
79347;BME280;68815;48.810;44.482;2023-04-24T13:46:24;100778;;;13.7;62.5
79347;BME280;68815;48.810;44.482;2023-04-24T13:49:26;100779;;;13.7;62.8
79347;BME280;68815;48.810;44.482;2023-04-24T13:52:27;100774;;;13.6;62.8
79347;BME280;68815;48.810;44.482;2023-04-24T13:55:29;100777;;;13.4;62.8
79347;BME280;68815;48.810;44.482;2023-04-24T13:58:30;100767;;;13.3;63.6
79347;BME280;68815;48.810;44.482;2023-04-24T14:01:32;100768;;;13.2;64.2
79347;BME280;68815;48.810;44.482;2023-04-24T14:04:33;100761;;;13.1;65.2
79347;BME280;68815;48.810;44.482;2023-04-24T14:07:35;100750;;;13.1;66.1
79347;BME280;68815;48.810;44.482;2023-04-24T14:10:42;100751;;;13.2;66.3
79347;BME280;68815;48.810;44.482;2023-04-24T14:13:45;100757;;;13.1;66.2
79347;BME280;68815;48.810;44.482;2023-04-24T14:16:47;100745;;;13.1;66.1
79347;BME280;68815;48.810;44.482;2023-04-24T14:19:48;100739;;;13.1;65.8
79347;BME280;68815;48.810;44.482;2023-04-24T14:22:50;100730;;;13.1;66.3
79347;BME280;68815;48.810;44.482;2023-04-24T14:25:51;100738;;;13.2;66.5
79347;BME280;68815;48.810;44.482;2023-04-24T14:28:53;100729;;;13.2;66.1
79347;BME280;68815;48.810;44.482;2023-04-24T14:31:54;100722;;;13.1;66.3
79347;BME280;68815;48.810;44.482;2023-04-24T14:34:56;100718;;;13;66
79347;BME280;68815;48.810;44.482;2023-04-24T14:37:57;100716;;;13;66
79347;BME280;68815;48.810;44.482;2023-04-24T14:40:59;100715;;;13;65.7
79347;BME280;68815;48.810;44.482;2023-04-24T14:44:00;100704;;;13;66
79347;BME280;68815;48.810;44.482;2023-04-24T14:47:02;100698;;;13;65.8
79347;BME280;68815;48.810;44.482;2023-04-24T14:50:04;100714;;;13;64.5
79347;BME280;68815;48.810;44.482;2023-04-24T14:53:05;100721;;;13;64.3
79347;BME280;68815;48.810;44.482;2023-04-24T14:56:07;100702;;;13;64.6
79347;BME280;68815;48.810;44.482;2023-04-24T14:59:08;100709;;;13;64.7
79347;BME280;68815;48.810;44.482;2023-04-24T15:02:10;100723;;;13;65.2
79347;BME280;68815;48.810;44.482;2023-04-24T15:05:12;100714;;;12.9;65.6
79347;BME280;68815;48.810;44.482;2023-04-24T15:08:13;100717;;;12.9;65.3
79347;BME280;68815;48.810;44.482;2023-04-24T15:11:15;100708;;;12.9;65.3
79347;BME280;68815;48.810;44.482;2023-04-24T15:14:18;100710;;;12.9;65.5
79347;BME280;68815;48.810;44.482;2023-04-24T15:17:19;100715;;;12.8;66.2
79347;BME280;68815;48.810;44.482;2023-04-24T15:20:21;100723;;;12.7;66.6
79347;BME280;68815;48.810;44.482;2023-04-24T15:23:23;100714;;;12.6;68.6
79347;BME280;68815;48.810;44.482;2023-04-24T15:26:25;100708;;;12.6;68.3
79347;BME280;68815;48.810;44.482;2023-04-24T15:29:26;100709;;;12.6;67.7
79347;BME280;68815;48.810;44.482;2023-04-24T15:32:28;100703;;;12.5;69
79347;BME280;68815;48.810;44.482;2023-04-24T15:35:29;100708;;;12.5;68.4
79347;BME280;68815;48.810;44.482;2023-04-24T15:38:31;100696;;;12.4;68.8
79347;BME280;68815;48.810;44.482;2023-04-24T15:41:32;100709;;;12.5;67.9
79347;BME280;68815;48.810;44.482;2023-04-24T15:44:34;100698;;;12.5;68.4
79347;BME280;68815;48.810;44.482;2023-04-24T15:47:35;100706;;;12.5;68.6
79347;BME280;68815;48.810;44.482;2023-04-24T15:50:37;100697;;;12.5;68.5
79347;BME280;68815;48.810;44.482;2023-04-24T15:53:38;100684;;;12.5;68.2
79347;BME280;68815;48.810;44.482;2023-04-24T15:56:40;100680;;;12.4;68.2
79347;BME280;68815;48.810;44.482;2023-04-24T15:59:41;100685;;;12.4;68.7
79347;BME280;68815;48.810;44.482;2023-04-24T16:02:43;100683;;;12.5;68.3
79347;BME280;68815;48.810;44.482;2023-04-24T16:05:45;100678;;;12.6;68.3
79347;BME280;68815;48.810;44.482;2023-04-24T16:08:46;100669;;;12.6;68.4
79347;BME280;68815;48.810;44.482;2023-04-24T16:11:48;100663;;;12.6;67.8
79347;BME280;68815;48.810;44.482;2023-04-24T16:14:55;100666;;;12.6;67.7
79347;BME280;68815;48.810;44.482;2023-04-24T16:17:57;100659;;;12.6;67.3
79347;BME280;68815;48.810;44.482;2023-04-24T16:20:58;100680;;;12.6;67.5
79347;BME280;68815;48.810;44.482;2023-04-24T16:24:01;100664;;;12.7;67.5
79347;BME280;68815;48.810;44.482;2023-04-24T16:27:08;100668;;;12.7;67.7
79347;BME280;68815;48.810;44.482;2023-04-24T16:30:10;100661;;;12.7;67.8
79347;BME280;68815;48.810;44.482;2023-04-24T16:33:11;100667;;;12.7;68.3
79347;BME280;68815;48.810;44.482;2023-04-24T16:36:13;100663;;;12.7;68.7
79347;BME280;68815;48.810;44.482;2023-04-24T16:39:14;100653;;;12.6;69.5
79347;BME280;68815;48.810;44.482;2023-04-24T16:42:16;100654;;;12.6;70.2
79347;BME280;68815;48.810;44.482;2023-04-24T16:45:17;100671;;;12.6;70.8
79347;BME280;68815;48.810;44.482;2023-04-24T16:48:18;100649;;;12.6;71
79347;BME280;68815;48.810;44.482;2023-04-24T16:51:20;100649;;;12.4;72.1
79347;BME280;68815;48.810;44.482;2023-04-24T16:54:22;100649;;;12.4;72.6
79347;BME280;68815;48.810;44.482;2023-04-24T16:57:24;100656;;;12.3;73.8